createdAt,value
2017-12-10T00:00:03.381Z,994.41
2017-12-10T00:01:04.784Z,994.40
2017-12-10T00:02:06.183Z,994.40
2017-12-10T00:03:07.593Z,994.37
2017-12-10T00:04:09.008Z,994.48
2017-12-10T00:05:10.411Z,994.41
2017-12-10T00:06:11.808Z,994.38
2017-12-10T00:07:13.212Z,994.29
2017-12-10T00:08:14.620Z,994.38
2017-12-10T00:09:16.028Z,994.31
2017-12-10T00:10:17.438Z,994.26
2017-12-10T00:11:18.847Z,994.36
2017-12-10T00:12:20.255Z,994.35
2017-12-10T00:13:21.665Z,994.24
2017-12-10T00:14:23.067Z,994.20
2017-12-10T00:15:24.485Z,994.10
2017-12-10T00:16:25.892Z,994.10
2017-12-10T00:17:27.289Z,994.13
2017-12-10T00:18:28.719Z,994.04
2017-12-10T00:19:30.143Z,994.08
2017-12-10T00:20:31.561Z,994.02
2017-12-10T00:21:32.957Z,994.03
2017-12-10T00:22:34.374Z,994.08
2017-12-10T00:23:35.783Z,994.15
2017-12-10T00:24:37.208Z,994.04
2017-12-10T00:25:38.606Z,994.04
2017-12-10T00:26:40.014Z,993.99
2017-12-10T00:27:41.423Z,993.97
2017-12-10T00:28:42.838Z,993.99
2017-12-10T00:29:44.238Z,993.93
2017-12-10T00:30:45.650Z,993.88
2017-12-10T00:31:47.063Z,993.95
2017-12-10T00:32:48.471Z,993.84
2017-12-10T00:33:49.886Z,993.85
2017-12-10T00:34:51.296Z,993.84
2017-12-10T00:35:52.711Z,993.83
2017-12-10T00:36:54.120Z,993.82
2017-12-10T00:37:55.531Z,993.83
2017-12-10T00:38:56.931Z,993.74
2017-12-10T00:39:58.331Z,993.67
2017-12-10T00:40:59.736Z,993.66
2017-12-10T00:42:01.141Z,993.65
2017-12-10T00:43:02.555Z,993.68
2017-12-10T00:44:03.984Z,993.70
2017-12-10T00:45:05.399Z,993.64
2017-12-10T00:46:06.809Z,993.68
2017-12-10T00:47:08.210Z,993.59
2017-12-10T00:48:09.619Z,993.58
2017-12-10T00:49:11.022Z,993.58
2017-12-10T00:50:12.428Z,993.53
2017-12-10T00:51:13.859Z,993.52
2017-12-10T00:52:15.807Z,993.53
2017-12-10T00:53:17.217Z,993.49
2017-12-10T00:54:18.619Z,993.44
2017-12-10T00:55:20.029Z,993.50
2017-12-10T00:56:21.440Z,993.49
2017-12-10T00:57:22.857Z,993.42
2017-12-10T00:58:24.261Z,993.39
2017-12-10T00:59:25.662Z,993.36
2017-12-10T01:00:27.070Z,993.34
2017-12-10T01:01:28.472Z,993.39
2017-12-10T01:02:29.885Z,993.36
2017-12-10T01:03:31.296Z,993.36
2017-12-10T01:04:32.709Z,993.33
2017-12-10T01:05:34.111Z,993.35
2017-12-10T01:06:35.510Z,993.27
2017-12-10T01:07:36.915Z,993.19
2017-12-10T01:08:38.321Z,993.24
2017-12-10T01:09:39.724Z,993.19
2017-12-10T01:10:41.144Z,993.24
2017-12-10T01:11:42.553Z,993.20
2017-12-10T01:12:43.961Z,993.18
2017-12-10T01:13:45.368Z,993.18
2017-12-10T01:14:46.776Z,993.16
2017-12-10T01:15:48.188Z,993.19
2017-12-10T01:16:49.595Z,993.13
2017-12-10T01:17:51.009Z,993.07
2017-12-10T01:18:52.416Z,993.15
2017-12-10T01:19:53.824Z,993.08
2017-12-10T01:20:55.228Z,993.20
2017-12-10T01:21:56.632Z,993.13
2017-12-10T01:22:58.055Z,993.09
2017-12-10T01:23:59.476Z,993.08
2017-12-10T01:25:00.886Z,993.07
2017-12-10T01:26:02.295Z,993.05
2017-12-10T01:27:03.692Z,993.03
2017-12-10T01:28:05.109Z,993.00
2017-12-10T01:29:06.516Z,993.00
2017-12-10T01:30:07.934Z,992.94
2017-12-10T01:31:09.339Z,992.96
2017-12-10T01:32:10.746Z,992.85
2017-12-10T01:33:12.156Z,992.91
2017-12-10T01:34:13.571Z,992.94
2017-12-10T01:35:14.974Z,992.92
2017-12-10T01:36:16.379Z,992.96
2017-12-10T01:37:17.790Z,992.81
2017-12-10T01:38:19.199Z,992.82
2017-12-10T01:39:20.606Z,992.78
2017-12-10T01:40:22.011Z,992.74
2017-12-10T01:41:23.420Z,992.69
2017-12-10T01:42:24.827Z,992.70
2017-12-10T01:43:26.235Z,992.67
2017-12-10T01:44:27.642Z,992.70
2017-12-10T01:45:29.048Z,992.70
2017-12-10T01:46:30.459Z,992.67
2017-12-10T01:47:31.879Z,992.66
2017-12-10T01:48:33.282Z,992.61
2017-12-10T01:49:34.686Z,992.57
2017-12-10T01:50:36.096Z,992.56
2017-12-10T01:51:37.504Z,992.58
2017-12-10T01:52:38.915Z,992.49
2017-12-10T01:53:40.326Z,992.56
2017-12-10T01:54:41.732Z,992.47
2017-12-10T01:55:43.148Z,992.42
2017-12-10T01:56:44.556Z,992.42
2017-12-10T01:57:45.965Z,992.37
2017-12-10T01:58:47.402Z,992.35
2017-12-10T01:59:48.808Z,992.32
2017-12-10T02:00:50.219Z,992.34
2017-12-10T02:01:51.627Z,992.25
2017-12-10T02:02:53.057Z,992.29
2017-12-10T02:03:54.445Z,992.24
2017-12-10T02:04:55.857Z,992.25
2017-12-10T02:05:57.260Z,992.19
2017-12-10T02:06:58.661Z,992.09
2017-12-10T02:08:00.074Z,992.11
2017-12-10T02:09:01.474Z,992.17
2017-12-10T02:10:02.887Z,992.07
2017-12-10T02:11:04.294Z,992.03
2017-12-10T02:12:05.708Z,991.97
2017-12-10T02:13:07.108Z,991.87
2017-12-10T02:14:08.514Z,991.88
2017-12-10T02:15:09.937Z,991.88
2017-12-10T02:16:11.352Z,991.81
2017-12-10T02:17:12.763Z,991.80
2017-12-10T02:18:14.169Z,991.75
2017-12-10T02:19:15.568Z,991.73
2017-12-10T02:20:16.982Z,991.70
2017-12-10T02:21:18.389Z,991.71
2017-12-10T02:22:19.803Z,991.63
2017-12-10T02:23:21.207Z,991.57
2017-12-10T02:24:22.630Z,991.55
2017-12-10T02:25:24.028Z,991.54
2017-12-10T02:26:25.494Z,991.43
2017-12-10T02:27:26.846Z,991.37
2017-12-10T02:28:28.246Z,991.37
2017-12-10T02:29:29.716Z,991.35
2017-12-10T02:30:31.128Z,991.34
2017-12-10T02:31:32.556Z,991.27
2017-12-10T02:32:33.957Z,991.28
2017-12-10T02:33:35.368Z,991.13
2017-12-10T02:34:36.780Z,991.12
2017-12-10T02:35:38.187Z,991.09
2017-12-10T02:36:39.599Z,991.06
2017-12-10T02:37:41.008Z,991.05
2017-12-10T02:38:42.420Z,990.96
2017-12-10T02:39:43.818Z,991.01
2017-12-10T02:40:45.228Z,990.95
2017-12-10T02:41:46.633Z,990.92
2017-12-10T02:42:48.087Z,990.92
2017-12-10T02:43:49.487Z,990.72
2017-12-10T02:44:50.902Z,990.64
2017-12-10T02:45:52.303Z,990.63
2017-12-10T02:46:53.710Z,990.60
2017-12-10T02:47:55.120Z,990.50
2017-12-10T02:48:56.516Z,990.40
2017-12-10T02:49:57.923Z,990.31
2017-12-10T02:50:59.341Z,990.26
2017-12-10T02:52:00.744Z,990.30
2017-12-10T02:53:02.156Z,990.23
2017-12-10T02:54:03.573Z,990.22
2017-12-10T02:55:04.981Z,990.21
2017-12-10T02:56:06.391Z,990.14
2017-12-10T02:57:07.794Z,990.20
2017-12-10T02:58:09.205Z,990.08
2017-12-10T02:59:10.616Z,990.12
2017-12-10T03:00:12.028Z,990.05
2017-12-10T03:01:13.430Z,990.07
2017-12-10T03:02:14.840Z,990.03
2017-12-10T03:03:16.236Z,990.01
2017-12-10T03:04:17.634Z,989.93
2017-12-10T03:05:19.056Z,989.60
2017-12-10T03:06:20.466Z,989.32
2017-12-10T03:07:21.874Z,989.26
2017-12-10T03:08:23.269Z,989.02
2017-12-10T03:09:24.681Z,988.93
2017-12-10T03:10:26.085Z,988.90
2017-12-10T03:11:27.501Z,988.80
2017-12-10T03:12:28.904Z,988.67
2017-12-10T03:13:30.308Z,988.62
2017-12-10T03:14:31.721Z,988.66
2017-12-10T03:15:33.127Z,988.81
2017-12-10T03:16:34.535Z,988.86
2017-12-10T03:17:35.939Z,988.98
2017-12-10T03:18:45.577Z,989.04
2017-12-10T03:20:29.215Z,989.10
2017-12-10T03:21:30.626Z,989.15
2017-12-10T03:22:32.033Z,989.13
2017-12-10T03:23:33.439Z,989.13
2017-12-10T03:24:34.842Z,989.06
2017-12-10T03:25:36.253Z,988.80
2017-12-10T03:26:37.650Z,988.73
2017-12-10T03:27:39.053Z,988.52
2017-12-10T03:28:40.464Z,988.52
2017-12-10T03:29:41.868Z,988.51
2017-12-10T03:30:43.274Z,988.52
2017-12-10T03:31:44.684Z,988.58
2017-12-10T03:32:46.096Z,988.57
2017-12-10T03:33:47.499Z,988.51
2017-12-10T03:34:48.910Z,988.40
2017-12-10T03:35:50.317Z,988.27
2017-12-10T03:36:51.728Z,988.16
2017-12-10T03:37:53.133Z,988.09
2017-12-10T03:38:54.546Z,988.04
2017-12-10T03:39:55.944Z,988.08
2017-12-10T03:40:57.357Z,988.17
2017-12-10T03:41:58.778Z,988.23
2017-12-10T03:43:00.176Z,988.23
2017-12-10T03:44:01.592Z,988.27
2017-12-10T03:45:03.019Z,988.24
2017-12-10T03:46:04.412Z,988.15
2017-12-10T03:47:05.819Z,988.10
2017-12-10T03:48:07.229Z,988.14
2017-12-10T03:49:08.628Z,988.19
2017-12-10T03:50:10.041Z,988.20
2017-12-10T03:51:11.436Z,988.20
2017-12-10T03:52:12.843Z,988.17
2017-12-10T03:53:14.263Z,988.09
2017-12-10T03:54:15.667Z,988.07
2017-12-10T03:55:17.078Z,988.10
2017-12-10T03:56:18.494Z,988.10
2017-12-10T03:57:19.894Z,988.16
2017-12-10T03:58:21.312Z,988.13
2017-12-10T03:59:22.716Z,988.13
2017-12-10T04:00:24.181Z,988.06
2017-12-10T04:01:25.587Z,988.03
2017-12-10T04:02:26.990Z,988.00
2017-12-10T04:03:28.395Z,988.03
2017-12-10T04:04:29.799Z,988.02
2017-12-10T04:05:31.206Z,988.09
2017-12-10T04:06:32.612Z,988.05
2017-12-10T04:07:34.124Z,987.85
2017-12-10T04:08:35.536Z,987.63
2017-12-10T04:09:36.996Z,987.38
2017-12-10T04:10:38.345Z,987.37
2017-12-10T04:11:39.758Z,987.32
2017-12-10T04:12:41.165Z,987.28
2017-12-10T04:13:42.572Z,987.27
2017-12-10T04:14:43.982Z,987.26
2017-12-10T04:15:45.389Z,987.29
2017-12-10T04:16:46.799Z,987.27
2017-12-10T04:17:48.210Z,987.25
2017-12-10T04:18:49.614Z,987.32
2017-12-10T04:19:51.024Z,987.28
2017-12-10T04:20:52.426Z,987.26
2017-12-10T04:21:53.822Z,987.28
2017-12-10T04:22:55.235Z,987.27
2017-12-10T04:23:56.637Z,987.32
2017-12-10T04:24:58.048Z,987.32
2017-12-10T04:25:59.457Z,987.25
2017-12-10T04:27:00.863Z,987.15
2017-12-10T04:28:02.264Z,987.16
2017-12-10T04:29:03.670Z,987.03
2017-12-10T04:30:05.072Z,987.15
2017-12-10T04:31:06.486Z,987.15
2017-12-10T04:32:07.885Z,987.16
2017-12-10T04:33:09.296Z,987.16
2017-12-10T04:34:10.708Z,987.18
2017-12-10T04:35:12.108Z,987.17
2017-12-10T04:36:13.521Z,987.13
2017-12-10T04:37:14.927Z,987.10
2017-12-10T04:38:16.335Z,987.09
2017-12-10T04:39:17.746Z,987.05
2017-12-10T04:40:19.159Z,987.09
2017-12-10T04:41:20.565Z,987.06
2017-12-10T04:42:21.966Z,987.07
2017-12-10T04:43:23.377Z,986.98
2017-12-10T04:44:24.787Z,986.99
2017-12-10T04:45:26.200Z,987.03
2017-12-10T04:46:27.609Z,986.98
2017-12-10T04:47:29.022Z,986.97
2017-12-10T04:48:30.426Z,986.94
2017-12-10T04:49:31.833Z,986.90
2017-12-10T04:50:33.233Z,986.89
2017-12-10T04:51:34.647Z,986.82
2017-12-10T04:52:36.061Z,986.85
2017-12-10T04:53:37.467Z,986.86
2017-12-10T04:54:38.878Z,986.82
2017-12-10T04:55:40.296Z,986.78
2017-12-10T04:56:41.709Z,986.71
2017-12-10T04:57:43.107Z,986.64
2017-12-10T04:58:44.508Z,986.61
2017-12-10T04:59:45.908Z,986.53
2017-12-10T05:00:47.319Z,986.51
2017-12-10T05:01:48.768Z,986.39
2017-12-10T05:02:50.168Z,986.44
2017-12-10T05:03:51.575Z,986.38
2017-12-10T05:04:52.979Z,986.32
2017-12-10T05:05:54.387Z,986.23
2017-12-10T05:06:55.800Z,986.16
2017-12-10T05:07:57.200Z,986.11
2017-12-10T05:08:58.605Z,986.04
2017-12-10T05:10:00.012Z,986.02
2017-12-10T05:11:01.417Z,985.99
2017-12-10T05:12:02.829Z,985.93
2017-12-10T05:13:04.222Z,985.95
2017-12-10T05:14:05.742Z,985.88
2017-12-10T05:15:07.147Z,985.92
2017-12-10T05:16:08.554Z,985.87
2017-12-10T05:17:09.957Z,985.76
2017-12-10T05:18:11.359Z,985.48
2017-12-10T05:19:12.766Z,985.31
2017-12-10T05:20:14.180Z,985.24
2017-12-10T05:21:15.588Z,985.08
2017-12-10T05:22:16.999Z,985.00
2017-12-10T05:23:18.408Z,985.12
2017-12-10T05:24:19.813Z,984.96
2017-12-10T05:25:21.227Z,984.97
2017-12-10T05:26:22.637Z,984.97
2017-12-10T05:27:24.055Z,984.83
2017-12-10T05:28:25.465Z,984.69
2017-12-10T05:29:26.866Z,984.75
2017-12-10T05:30:28.278Z,984.75
2017-12-10T05:31:29.690Z,984.65
2017-12-10T05:32:31.096Z,984.60
2017-12-10T05:33:32.503Z,984.53
2017-12-10T05:34:33.907Z,984.51
2017-12-10T05:35:35.310Z,984.58
2017-12-10T05:36:36.718Z,984.60
2017-12-10T05:37:38.125Z,984.62
2017-12-10T05:38:39.533Z,984.68
2017-12-10T05:39:40.935Z,984.77
2017-12-10T05:40:42.340Z,984.71
2017-12-10T05:41:43.747Z,984.71
2017-12-10T05:42:45.151Z,984.67
2017-12-10T05:43:46.564Z,984.70
2017-12-10T05:44:47.966Z,984.61
2017-12-10T05:45:49.369Z,984.62
2017-12-10T05:46:50.781Z,984.62
2017-12-10T05:47:52.178Z,984.57
2017-12-10T05:48:53.579Z,984.48
2017-12-10T05:49:54.989Z,984.39
2017-12-10T05:50:56.403Z,984.39
2017-12-10T05:51:57.818Z,984.37
2017-12-10T05:52:59.220Z,984.40
2017-12-10T05:54:00.630Z,984.43
2017-12-10T05:55:02.031Z,984.37
2017-12-10T05:56:03.438Z,984.38
2017-12-10T05:57:04.847Z,984.45
2017-12-10T05:58:06.259Z,984.39
2017-12-10T05:59:07.662Z,984.41
2017-12-10T06:00:09.078Z,984.40
2017-12-10T06:01:10.484Z,984.47
2017-12-10T06:02:11.893Z,984.43
2017-12-10T06:03:13.300Z,984.45
2017-12-10T06:04:14.709Z,984.41
2017-12-10T06:05:16.114Z,984.39
2017-12-10T06:06:17.520Z,984.35
2017-12-10T06:07:18.978Z,984.36
2017-12-10T06:08:20.374Z,984.33
2017-12-10T06:09:21.789Z,984.27
2017-12-10T06:10:23.186Z,984.26
2017-12-10T06:11:24.650Z,984.30
2017-12-10T06:12:25.996Z,984.36
2017-12-10T06:13:27.404Z,984.30
2017-12-10T06:14:28.819Z,984.30
2017-12-10T06:15:30.227Z,984.27
2017-12-10T06:16:31.632Z,984.29
2017-12-10T06:17:33.035Z,984.20
2017-12-10T06:18:34.441Z,984.22
2017-12-10T06:19:35.839Z,984.15
2017-12-10T06:20:37.243Z,984.14
2017-12-10T06:21:38.652Z,984.11
2017-12-10T06:22:40.067Z,984.13
2017-12-10T06:23:41.480Z,984.09
2017-12-10T06:24:42.880Z,984.03
2017-12-10T06:25:44.300Z,984.07
2017-12-10T06:26:45.700Z,984.12
2017-12-10T06:27:47.110Z,984.02
2017-12-10T06:28:48.516Z,984.02
2017-12-10T06:29:49.909Z,983.94
2017-12-10T06:30:51.313Z,983.98
2017-12-10T06:31:52.726Z,983.98
2017-12-10T06:32:54.131Z,983.91
2017-12-10T06:33:55.532Z,983.92
2017-12-10T06:34:56.943Z,983.77
2017-12-10T06:35:58.362Z,983.79
2017-12-10T06:36:59.777Z,983.74
2017-12-10T06:38:01.187Z,983.77
2017-12-10T06:39:02.588Z,983.69
2017-12-10T06:40:03.996Z,983.72
2017-12-10T06:41:05.398Z,983.68
2017-12-10T06:42:06.802Z,983.64
2017-12-10T06:43:08.213Z,983.60
2017-12-10T06:44:09.612Z,983.63
2017-12-10T06:45:11.029Z,983.52
2017-12-10T06:46:12.438Z,983.52
2017-12-10T06:47:13.834Z,983.53
2017-12-10T06:48:15.246Z,983.44
2017-12-10T06:49:16.646Z,983.43
2017-12-10T06:50:18.057Z,983.37
2017-12-10T06:51:19.462Z,983.44
2017-12-10T06:52:20.876Z,983.38
2017-12-10T06:53:22.287Z,983.40
2017-12-10T06:54:23.694Z,983.35
2017-12-10T06:55:25.094Z,983.31
2017-12-10T06:56:26.503Z,983.32
2017-12-10T06:57:27.902Z,983.27
2017-12-10T06:58:29.312Z,983.35
2017-12-10T06:59:30.711Z,983.27
2017-12-10T07:00:32.076Z,983.28
2017-12-10T07:01:33.580Z,983.25
2017-12-10T07:02:34.986Z,983.23
2017-12-10T07:03:36.388Z,983.22
2017-12-10T07:04:37.793Z,983.28
2017-12-10T07:05:39.207Z,983.18
2017-12-10T07:06:40.615Z,983.21
2017-12-10T07:07:42.014Z,983.25
2017-12-10T07:08:43.427Z,983.20
2017-12-10T07:09:44.826Z,983.18
2017-12-10T07:10:46.237Z,983.09
2017-12-10T07:11:47.635Z,983.13
2017-12-10T07:12:49.064Z,983.05
2017-12-10T07:13:50.472Z,983.07
2017-12-10T07:14:51.844Z,983.01
2017-12-10T07:15:53.248Z,983.07
2017-12-10T07:16:54.673Z,983.03
2017-12-10T07:17:56.070Z,982.98
2017-12-10T07:18:57.480Z,982.95
2017-12-10T07:19:58.890Z,982.94
2017-12-10T07:21:00.296Z,982.87
2017-12-10T07:22:01.703Z,982.86
2017-12-10T07:23:03.112Z,982.84
2017-12-10T07:24:04.531Z,982.82
2017-12-10T07:25:05.944Z,982.71
2017-12-10T07:26:07.357Z,982.64
2017-12-10T07:27:08.758Z,982.56
2017-12-10T07:28:10.170Z,982.57
2017-12-10T07:29:11.581Z,982.49
2017-12-10T07:30:12.992Z,982.38
2017-12-10T07:31:14.388Z,982.37
2017-12-10T07:32:15.794Z,982.32
2017-12-10T07:33:17.199Z,982.24
2017-12-10T07:34:18.610Z,982.31
2017-12-10T07:35:20.013Z,982.23
2017-12-10T07:36:21.418Z,982.19
2017-12-10T07:37:22.890Z,982.21
2017-12-10T07:38:24.297Z,982.06
2017-12-10T07:39:25.715Z,982.10
2017-12-10T07:40:27.120Z,981.97
2017-12-10T07:41:28.529Z,981.92
2017-12-10T07:42:29.945Z,981.86
2017-12-10T07:43:31.348Z,981.84
2017-12-10T07:44:32.752Z,981.75
2017-12-10T07:45:34.165Z,981.75
2017-12-10T07:46:35.569Z,981.72
2017-12-10T07:47:36.979Z,981.73
2017-12-10T07:48:38.378Z,981.70
2017-12-10T07:49:39.851Z,981.69
2017-12-10T07:50:41.258Z,981.72
2017-12-10T07:51:42.671Z,981.70
2017-12-10T07:52:44.086Z,981.70
2017-12-10T07:53:45.498Z,981.61
2017-12-10T07:54:46.902Z,981.55
2017-12-10T07:55:48.325Z,981.50
2017-12-10T07:56:49.738Z,981.54
2017-12-10T07:57:51.147Z,981.42
2017-12-10T07:58:52.551Z,981.35
2017-12-10T07:59:53.958Z,981.27
2017-12-10T08:00:55.381Z,981.30
2017-12-10T08:01:56.782Z,981.18
2017-12-10T08:02:58.197Z,981.13
2017-12-10T08:03:59.607Z,981.18
2017-12-10T08:05:01.018Z,981.11
2017-12-10T08:06:02.430Z,981.10
2017-12-10T08:07:03.833Z,981.05
2017-12-10T08:08:05.363Z,981.05
2017-12-10T08:09:06.839Z,980.99
2017-12-10T08:10:08.249Z,980.91
2017-12-10T08:11:09.658Z,980.89
2017-12-10T08:12:11.073Z,980.88
2017-12-10T08:13:12.480Z,980.90
2017-12-10T08:14:13.890Z,980.70
2017-12-10T08:15:15.300Z,980.73
2017-12-10T08:16:16.709Z,980.63
2017-12-10T08:17:18.115Z,980.64
2017-12-10T08:18:19.516Z,980.59
2017-12-10T08:19:20.936Z,980.51
2017-12-10T08:20:22.343Z,980.46
2017-12-10T08:21:23.751Z,980.42
2017-12-10T08:22:25.167Z,980.39
2017-12-10T08:23:26.580Z,980.44
2017-12-10T08:24:27.995Z,980.42
2017-12-10T08:25:29.401Z,980.40
2017-12-10T08:26:30.820Z,980.35
2017-12-10T08:27:32.266Z,980.34
2017-12-10T08:28:33.669Z,980.31
2017-12-10T08:29:35.076Z,980.32
2017-12-10T08:30:36.487Z,980.31
2017-12-10T08:31:37.898Z,980.28
2017-12-10T08:32:39.300Z,980.22
2017-12-10T08:33:40.711Z,980.23
2017-12-10T08:34:42.124Z,980.11
2017-12-10T08:35:43.532Z,980.05
2017-12-10T08:36:44.933Z,979.96
2017-12-10T08:37:46.339Z,980.12
2017-12-10T08:38:47.755Z,979.91
2017-12-10T08:39:49.160Z,979.98
2017-12-10T08:40:50.563Z,979.96
2017-12-10T08:41:51.970Z,980.00
2017-12-10T08:42:53.379Z,979.90
2017-12-10T08:43:54.791Z,979.97
2017-12-10T08:44:56.207Z,979.87
2017-12-10T08:45:57.621Z,979.85
2017-12-10T08:46:59.038Z,979.72
2017-12-10T08:48:00.449Z,979.70
2017-12-10T08:49:01.862Z,979.69
2017-12-10T08:50:03.273Z,979.59
2017-12-10T08:51:04.736Z,979.54
2017-12-10T08:52:06.144Z,979.64
2017-12-10T08:53:07.557Z,979.56
2017-12-10T08:54:08.968Z,979.59
2017-12-10T08:55:10.382Z,979.53
2017-12-10T08:56:11.787Z,979.41
2017-12-10T08:57:13.981Z,979.49
2017-12-10T08:58:15.398Z,979.44
2017-12-10T08:59:16.807Z,979.32
2017-12-10T09:00:18.224Z,979.24
2017-12-10T09:01:19.641Z,979.20
2017-12-10T09:02:21.112Z,979.16
2017-12-10T09:03:22.520Z,979.03
2017-12-10T09:04:23.937Z,978.91
2017-12-10T09:05:25.348Z,978.76
2017-12-10T09:06:26.762Z,978.76
2017-12-10T09:07:28.168Z,978.73
2017-12-10T09:08:29.582Z,978.80
2017-12-10T09:09:30.984Z,978.75
2017-12-10T09:10:32.389Z,978.58
2017-12-10T09:11:33.816Z,978.56
2017-12-10T09:12:35.232Z,978.43
2017-12-10T09:13:36.642Z,978.45
2017-12-10T09:14:38.058Z,978.42
2017-12-10T09:15:39.469Z,978.41
2017-12-10T09:16:40.881Z,978.40
2017-12-10T09:17:42.290Z,978.35
2017-12-10T09:18:43.701Z,978.28
2017-12-10T09:19:45.121Z,978.19
2017-12-10T09:20:46.528Z,978.15
2017-12-10T09:21:47.934Z,978.09
2017-12-10T09:22:49.350Z,978.05
2017-12-10T09:23:50.762Z,977.98
2017-12-10T09:24:52.169Z,977.90
2017-12-10T09:25:53.583Z,977.91
2017-12-10T09:26:54.994Z,977.84
2017-12-10T09:27:56.420Z,977.82
2017-12-10T09:28:57.831Z,977.80
2017-12-10T09:29:59.245Z,977.77
2017-12-10T09:31:00.655Z,977.63
2017-12-10T09:32:02.066Z,977.68
2017-12-10T09:33:03.482Z,977.51
2017-12-10T09:34:04.891Z,977.50
2017-12-10T09:35:06.294Z,977.45
2017-12-10T09:36:07.705Z,977.43
2017-12-10T09:37:09.119Z,977.46
2017-12-10T09:38:10.536Z,977.49
2017-12-10T09:39:11.941Z,977.39
2017-12-10T09:40:13.379Z,977.44
2017-12-10T09:41:14.791Z,977.35
2017-12-10T09:42:16.208Z,977.29
2017-12-10T09:43:17.637Z,977.27
2017-12-10T09:44:19.042Z,977.18
2017-12-10T09:45:20.454Z,977.25
2017-12-10T09:46:21.896Z,977.25
2017-12-10T09:47:23.374Z,977.16
2017-12-10T09:48:24.787Z,977.13
2017-12-10T09:49:26.210Z,977.03
2017-12-10T09:50:27.630Z,977.02
2017-12-10T09:51:29.039Z,977.00
2017-12-10T09:52:30.464Z,976.97
2017-12-10T09:53:31.871Z,977.00
2017-12-10T09:54:33.291Z,976.89
2017-12-10T09:55:35.581Z,976.84
2017-12-10T09:56:36.977Z,976.80
2017-12-10T09:57:38.399Z,976.93
2017-12-10T09:58:39.819Z,976.77
2017-12-10T09:59:41.324Z,976.70
2017-12-10T10:00:42.797Z,976.59
2017-12-10T10:01:44.142Z,976.53
2017-12-10T10:02:45.555Z,976.46
2017-12-10T10:03:46.966Z,976.37
2017-12-10T10:04:48.378Z,976.40
2017-12-10T10:05:49.783Z,976.44
2017-12-10T10:06:51.318Z,976.44
2017-12-10T10:07:52.732Z,976.44
2017-12-10T10:08:54.144Z,976.33
2017-12-10T10:09:55.562Z,976.28
2017-12-10T10:10:56.976Z,976.26
2017-12-10T10:11:58.386Z,976.20
2017-12-10T10:12:59.797Z,976.21
2017-12-10T10:14:01.208Z,976.17
2017-12-10T10:15:02.618Z,976.12
2017-12-10T10:16:04.026Z,976.16
2017-12-10T10:17:05.432Z,976.11
2017-12-10T10:18:06.848Z,976.05
2017-12-10T10:19:08.261Z,975.97
2017-12-10T10:20:09.679Z,975.87
2017-12-10T10:21:11.095Z,975.86
2017-12-10T10:22:12.501Z,975.84
2017-12-10T10:23:13.902Z,975.82
2017-12-10T10:24:15.337Z,975.86
2017-12-10T10:25:16.749Z,975.77
2017-12-10T10:26:18.161Z,975.77
2017-12-10T10:27:19.574Z,975.72
2017-12-10T10:28:20.997Z,975.63
2017-12-10T10:29:22.393Z,975.55
2017-12-10T10:30:23.813Z,975.54
2017-12-10T10:31:25.234Z,975.42
2017-12-10T10:32:26.649Z,975.44
2017-12-10T10:33:28.063Z,975.44
2017-12-10T10:34:29.472Z,975.33
2017-12-10T10:35:30.894Z,975.28
2017-12-10T10:36:32.297Z,975.23
2017-12-10T10:37:33.716Z,975.14
2017-12-10T10:38:35.137Z,975.07
2017-12-10T10:39:36.549Z,975.07
2017-12-10T10:40:37.984Z,974.92
2017-12-10T10:41:39.394Z,974.92
2017-12-10T10:42:40.806Z,974.80
2017-12-10T10:43:42.223Z,974.76
2017-12-10T10:44:43.645Z,974.65
2017-12-10T10:45:45.061Z,974.54
2017-12-10T10:46:46.477Z,974.55
2017-12-10T10:47:47.882Z,974.45
2017-12-10T10:48:49.291Z,974.44
2017-12-10T10:49:50.733Z,974.28
2017-12-10T10:50:52.142Z,974.27
2017-12-10T10:51:53.554Z,974.11
2017-12-10T10:52:54.974Z,974.09
2017-12-10T10:53:56.379Z,974.04
2017-12-10T10:54:57.785Z,973.97
2017-12-10T10:55:59.194Z,973.88
2017-12-10T10:57:00.604Z,973.72
2017-12-10T10:58:02.022Z,973.69
2017-12-10T10:59:03.426Z,973.55
2017-12-10T11:00:04.841Z,973.47
2017-12-10T11:01:06.255Z,973.36
2017-12-10T11:02:07.662Z,973.23
2017-12-10T11:03:09.077Z,973.16
2017-12-10T11:04:10.490Z,973.09
2017-12-10T11:05:11.899Z,973.05
2017-12-10T11:06:13.322Z,972.92
2017-12-10T11:07:14.775Z,972.86
2017-12-10T11:08:16.182Z,972.67
2017-12-10T11:09:17.594Z,972.59
2017-12-10T11:10:19.014Z,972.49
2017-12-10T11:11:20.431Z,972.41
2017-12-10T11:12:21.837Z,972.40
2017-12-10T11:13:23.244Z,972.41
2017-12-10T11:14:25.260Z,972.43
2017-12-10T11:15:26.672Z,972.31
2017-12-10T11:16:28.091Z,972.23
2017-12-10T11:17:29.514Z,972.26
2017-12-10T11:18:30.939Z,972.15
2017-12-10T11:19:32.347Z,972.12
2017-12-10T11:20:33.766Z,972.08
2017-12-10T11:21:35.180Z,972.08
2017-12-10T11:22:36.587Z,971.99
2017-12-10T11:23:38.004Z,971.96
2017-12-10T11:24:40.019Z,971.89
2017-12-10T11:25:41.422Z,971.94
2017-12-10T11:26:42.841Z,971.85
2017-12-10T11:27:44.709Z,971.86
2017-12-10T11:28:46.114Z,971.76
2017-12-10T11:29:47.528Z,971.65
2017-12-10T11:30:49.089Z,971.76
2017-12-10T11:31:50.510Z,971.63
2017-12-10T11:32:51.927Z,971.50
2017-12-10T11:33:53.345Z,971.44
2017-12-10T11:34:54.749Z,971.00
2017-12-10T11:35:56.163Z,970.92
2017-12-10T11:36:57.594Z,970.80
2017-12-10T11:37:59.012Z,970.79
2017-12-10T11:39:00.423Z,970.78
2017-12-10T11:40:01.843Z,970.64
2017-12-10T11:41:03.287Z,970.60
2017-12-10T11:42:04.708Z,970.43
2017-12-10T11:43:06.124Z,970.39
2017-12-10T11:44:07.527Z,970.38
2017-12-10T11:45:08.943Z,970.30
2017-12-10T11:46:10.356Z,970.13
2017-12-10T11:47:11.771Z,970.10
2017-12-10T11:48:13.187Z,969.99
2017-12-10T11:49:14.610Z,969.94
2017-12-10T11:50:16.021Z,969.74
2017-12-10T11:51:17.437Z,969.55
2017-12-10T11:52:18.853Z,969.44
2017-12-10T11:53:20.263Z,969.21
2017-12-10T11:54:21.833Z,969.17
2017-12-10T11:55:23.252Z,969.05
2017-12-10T11:56:24.665Z,969.04
2017-12-10T11:57:26.082Z,968.91
2017-12-10T11:58:27.494Z,968.96
2017-12-10T11:59:28.910Z,969.06
2017-12-10T12:00:30.326Z,969.00
2017-12-10T12:01:31.744Z,968.97
2017-12-10T12:02:33.160Z,968.92
2017-12-10T12:03:34.585Z,968.86
2017-12-10T12:04:36.670Z,968.75
2017-12-10T12:05:38.088Z,968.58
2017-12-10T12:06:39.505Z,968.71
2017-12-10T12:07:40.925Z,968.60
2017-12-10T12:08:42.337Z,968.72
2017-12-10T12:09:43.761Z,968.45
2017-12-10T12:10:45.153Z,968.25
2017-12-10T12:11:46.568Z,968.10
2017-12-10T12:12:47.979Z,967.87
2017-12-10T12:13:49.376Z,967.53
2017-12-10T12:14:50.794Z,967.65
2017-12-10T12:15:52.237Z,967.68
2017-12-10T12:16:53.666Z,967.76
2017-12-10T12:17:55.099Z,967.69
2017-12-10T12:18:56.531Z,967.78
2017-12-10T12:19:57.932Z,967.68
2017-12-10T12:20:59.346Z,967.76
2017-12-10T12:22:00.750Z,967.64
2017-12-10T12:23:02.169Z,967.07
2017-12-10T12:24:03.590Z,966.31
2017-12-10T12:25:05.019Z,965.53
2017-12-10T12:26:06.420Z,965.50
2017-12-10T12:27:07.847Z,965.02
2017-12-10T12:28:09.270Z,965.27
2017-12-10T12:29:10.680Z,965.56
2017-12-10T12:30:12.108Z,965.72
2017-12-10T12:31:13.528Z,965.91
2017-12-10T12:32:14.940Z,966.07
2017-12-10T12:33:16.356Z,966.24
2017-12-10T12:34:17.761Z,966.33
2017-12-10T12:35:19.173Z,966.44
2017-12-10T12:36:20.580Z,966.54
2017-12-10T12:37:21.998Z,966.45
2017-12-10T12:38:23.416Z,966.34
2017-12-10T12:39:24.859Z,966.40
2017-12-10T12:40:26.274Z,966.40
2017-12-10T12:41:27.692Z,966.38
2017-12-10T12:42:29.113Z,966.30
2017-12-10T12:43:30.543Z,966.37
2017-12-10T12:44:31.963Z,966.46
2017-12-10T12:45:33.380Z,966.60
2017-12-10T12:46:34.793Z,966.56